KDSM

Des Moines International Airport

Airport
ICAO code
KDSM
Summary
ICAO Region
NAM
ICAO Territory
Location

Des Moines, Iowa,

Elevation
958 ft
Coordinates
41° 31' 49" N , 93° 38' 60" W
KCC
Airport CFIT
Altimeter Temperature Error Correction
Metar
Observation
KDSM 070854Z 01007KT 10SM SCT090 OVC120 08/02 A3041 RMK AO2 SLP299 T00780017 50008
Station
Des Moines, Des Moines International Airport
Date/Time
2022-10-07 08:54:00
Wind direction
10°
Wind speed
07 kts
Lowest cloud amount
scattered clouds
Temperature
7.8°C
Dew point
1.7°C
Humidity
65%
Weather condition
n/a

Description

Des Moines International Airport is a joint civil-military (ANG) public-use airport located 6 km southwest of the central business district of Des Moines, a city in Polk County, Iowa.

Climatology

Humid continental climate (Köppen climate classification Dfa) - characterized by four seasons: cold, windy, snowy winters, mild springs, hot, humid summers, and crisp and relatively short autumns. Precipitation reaches its lowest in January and February and peaks in summer and latter half of spring.

Airport map

Aerial View

SKYbrary Partners:

Safety knowledge contributed by: